Monday, December 22, 2014
17:44 UTC
  |  Log In   |  Register Free
Airport Search:

Fairfield County Airport
(KFDW)

Fairfield County Airport Diagram
No Airport Diagram Available

FAA data valid effective November 13, 2014 - January 08, 2015 (unless otherwise noted).

 
 
 
 
 
 
 
 
 
 
 
 
 
 

Current Aviation Weather for Fairfield County Airport (KFDW)

The most recent METAR observation for KFDW was updated at: 2113
METAR Summary (Translated METAR)
KFDW
182055Z AUTO 22003KT 10SM CLR 13/00 A3007 RMK AO1
KCUB
182053Z AUTO 20004KT 10SM CLR 15/00 A3009 RMK AO2 SLP188 T01500000 55014
(21.5 nm SE from KFDW)
KCAE
182056Z 00000KT 10SM SCT110 SCT220 15/01 A3007 RMK AO2 SLP183 T01500011 55014
(22.6 nm SW from KFDW)
TAF Summary (Translated TAF)
KCUB
(21.5 nm SE from KFDW)
221430Z 2215/2312 06006KT 4SM -DZ BR OVC006 FM230200 07003KT 2SM BR OVC007 FM230800 VRB03KT 2SM -RA BR OVC004
KCAE
(22.6 nm SW from KFDW)
221430Z 2215/2312 06006KT 4SM -DZ BR OVC006 FM230200 07003KT 2SM BR OVC007 FM230800 VRB03KT 2SM -RA BR OVC004
  Airport Weather Conditions for KFDW

 Current Weather at FDW
41° F
Fog/Mist
North winds at 5.8 mph
FDW NOAA Radar

Pressure: 30.07 in
Humidity: 100%
Wind: North at 5.8 MPH (5 KT)
Dew Point: 41.0°F
Visibility: 1.25 mi


Airport Weather Forecast for KFDW

Translated METAR and TAF for KFDW
Translated METAR for KFDW (1744 UTC 22 December 2014)
found at http://aviationweather.gov/adds/metars/
 
METAR text: KFDW 221735Z AUTO 04006KT 1SM BR OVC003 05/05 A3004 RMK AO1
Conditions at: KFDW (WINNSBORO , SC, US) observed 1735 UTC 22 December 2014
Temperature: 5.0°C (41°F)
Dewpoint: 5.0°C (41°F) [RH = 100%]
Pressure (altimeter): 30.04 inches Hg (1017.4 mb)
Winds: from the NE (40 degrees) at 7 MPH (6 knots; 3.1 m/s)
Visibility: 1.00 miles (1.61 km)
Ceiling: 300 feet AGL
Clouds: overcast cloud deck at 300 feet AGL
Weather: BR  (mist)
Translated TAF for KFDW

There is no translated TAF available for this airport

Find All Airport Services Find A Hotel Find A Rental Car Find A Golf Course Find A Restaurant $100 Hamburger



FBO's on the Field
FBO Company Facility Photos Services Transportation Aviation Fuel Prices: Prices include tax
Catering Weather Repair Courtesy Rental Type 100LL JetA JetA+ MOGAS 8087
 
S & S Aviation Services

This FBO has not yet been rated
FS:Shell
Last Updated: Dec-22
Login to update fuel prices
SS:
Contact S & S Aviation ServicesMore FBO Information
 
Add another FBO Facility Photos Catering Weather Repair Courtesy Rental Type 100LL JetA JetA+ MOGAS 8087
Services Transportation Aviation Fuel Prices: Prices include tax


model-print
model-print
model-print
model-print